Time;durP1;ratioP1;P1;durP2;ratioP2;P2;SDS_P1;SDS_P2;PMS_P1;PMS_P2;Temp;Humidity;BMP_temperature;BMP_pressure;BME280_temperature;BME280_humidity;BME280_pressure;Samples;Min_cycle;Max_cycle;Signal;HPM_P1;HPM_P2
2021/04/27 00:01:42;;;;;;;15.15;10.30;;;281.90;1996.80;;;;;;5034588;28;20112;-61
2021/04/27 00:04:07;;;;;;;18.30;11.20;;;281.70;2022.40;;;;;;5034662;28;20033;-61
2021/04/27 00:06:33;;;;;;;16.13;11.40;;;281.80;2022.40;;;;;;5033182;28;20040;-64
2021/04/27 00:08:59;;;;;;;15.63;11.48;;;281.90;2073.60;;;;;;5033232;28;20045;-61
2021/04/27 00:11:24;;;;;;;16.45;11.23;;;281.80;2124.80;;;;;;5030005;28;20083;-62
2021/04/27 00:13:50;;;;;;;17.05;11.40;;;281.80;2099.20;;;;;;5016656;28;20041;-62
2021/04/27 00:16:16;;;;;;;14.93;10.88;;;281.80;2124.80;;;;;;5015320;28;20022;-64
2021/04/27 00:18:42;;;;;;;15.85;10.23;;;281.90;2099.20;;;;;;5014661;28;20415;-62
2021/04/27 00:21:08;;;;;;;16.10;11.27;;;281.90;2073.60;;;;;;5015077;28;20352;-62
2021/04/27 00:23:33;;;;;;;14.80;10.85;;;281.90;2099.20;;;;;;5014986;28;20022;-60
2021/04/27 00:25:59;;;;;;;15.88;11.15;;;281.90;2099.20;;;;;;5015045;28;20026;-62
2021/04/27 00:28:25;;;;;;;16.83;11.23;;;281.70;2099.20;;;;;;5015096;28;20032;-61
2021/04/27 00:30:51;;;;;;;16.83;11.77;;;281.80;2150.40;;;;;;5015044;28;20042;-62
2021/04/27 00:33:17;;;;;;;16.92;11.65;;;281.70;2150.40;;;;;;5025465;28;20021;-62
2021/04/27 00:35:43;;;;;;;16.98;12.18;;;281.80;2176.00;;;;;;5014740;28;20033;-60
2021/04/27 00:38:09;;;;;;;15.00;11.02;;;281.70;2124.80;;;;;;5014694;28;20022;-61
2021/04/27 00:40:34;;;;;;;17.02;10.68;;;281.70;2124.80;;;;;;5016412;28;20064;-61
2021/04/27 00:43:00;;;;;;;14.98;10.48;;;281.60;2124.80;;;;;;5034340;28;20459;-61
2021/04/27 00:45:28;;;;;;;16.98;11.05;;;256.80;2073.60;;;;;;5034576;28;20037;-61
2021/04/27 00:47:55;;;;;;;17.08;11.20;;;256.80;2124.80;;;;;;5049759;28;20037;-62
2021/04/27 00:50:28;;;;;;;16.63;11.70;;;256.60;2150.40;;;;;;5033139;28;20033;-61
2021/04/27 00:52:54;;;;;;;19.38;12.38;;;256.60;2176.00;;;;;;5014611;28;20026;-60
2021/04/27 00:55:22;;;;;;;18.10;11.48;;;256.40;2201.60;;;;;;5014203;28;20110;-62
2021/04/27 00:57:47;;;;;;;16.33;11.98;;;256.40;2201.60;;;;;;5025711;28;20124;-62
2021/04/27 01:00:25;;;;;;;16.40;11.93;;;256.50;2252.80;;;;;;5021737;28;20532;-61
2021/04/27 01:02:52;;;;;;;17.40;12.57;;;256.50;2252.80;;;;;;5034316;28;20017;-60
2021/04/27 01:05:20;;;;;;;17.67;12.45;;;256.50;2227.20;;;;;;5032688;28;20056;-61
2021/04/27 01:08:23;;;;;;;19.08;12.32;;;256.60;2252.80;;;;;;5030776;28;20022;-70
2021/04/27 01:11:02;;;;;;;17.33;12.63;;;256.60;2227.20;;;;;;5032073;28;20091;-61
2021/04/27 01:13:30;;;;;;;17.75;12.57;;;256.50;2252.80;;;;;;5032450;28;20018;-62
2021/04/27 01:15:58;;;;;;;18.10;12.90;;;256.50;2252.80;;;;;;5031959;28;20436;-62
2021/04/27 01:18:26;;;;;;;17.75;12.85;;;256.50;2252.80;;;;;;5027430;28;20014;-63
2021/04/27 01:20:53;;;;;;;18.85;13.02;;;256.40;2252.80;;;;;;5029745;28;20049;-61
2021/04/27 01:23:21;;;;;;;17.48;12.77;;;256.40;2252.80;;;;;;5032363;28;20017;-64
2021/04/27 01:26:12;;;;;;;19.52;13.27;;;256.30;2252.80;;;;;;5032480;28;20040;-62
2021/04/27 01:28:38;;;;;;;19.65;13.32;;;256.10;2252.80;;;;;;5030530;28;20088;-62
2021/04/27 01:31:06;;;;;;;21.27;13.25;;;256.00;2252.80;;;;;;5032379;28;20045;-71
2021/04/27 01:33:32;;;;;;;20.10;13.23;;;256.00;2252.80;;;;;;5029781;28;20018;-72
2021/04/27 01:36:00;;;;;;;19.67;13.63;;;231.30;2252.80;;;;;;5032631;28;20080;-61
2021/04/27 01:38:27;;;;;;;18.67;13.68;;;231.30;2252.80;;;;;;5032463;28;20036;-61
2021/04/27 01:40:54;;;;;;;19.17;13.18;;;231.30;2252.80;;;;;;5031898;28;20029;-63
2021/04/27 01:43:21;;;;;;;19.30;13.50;;;231.20;2252.80;;;;;;5032866;28;20388;-61
2021/04/27 01:45:49;;;;;;;17.02;12.80;;;231.30;2252.80;;;;;;5032053;28;20021;-61
2021/04/27 01:48:15;;;;;;;19.50;13.35;;;231.30;2252.80;;;;;;5032648;28;20028;-65
2021/04/27 01:50:42;;;;;;;19.52;13.32;;;231.30;2252.80;;;;;;5031147;28;20021;-62
2021/04/27 01:53:14;;;;;;;17.77;12.85;;;231.30;2252.80;;;;;;5031979;28;20025;-62
2021/04/27 01:55:41;;;;;;;20.02;12.82;;;231.30;2252.80;;;;;;5032235;28;20032;-62
2021/04/27 01:58:07;;;;;;;19.60;12.77;;;231.20;2252.80;;;;;;5032012;28;20475;-63
2021/04/27 02:00:33;;;;;;;18.23;12.90;;;231.10;2252.80;;;;;;5032101;28;20422;-61
2021/04/27 02:02:58;;;;;;;17.65;12.88;;;231.10;2252.80;;;;;;5032373;28;20021;-62
2021/04/27 02:05:24;;;;;;;18.45;13.82;;;231.10;2252.80;;;;;;5028882;28;20037;-61
2021/04/27 02:07:50;;;;;;;20.65;14.32;;;231.10;2252.80;;;;;;5030075;28;20539;-61
2021/04/27 02:10:16;;;;;;;19.33;13.73;;;231.20;2252.80;;;;;;5028335;28;20467;-62
2021/04/27 02:12:47;;;;;;;19.92;14.10;;;231.20;2252.80;;;;;;5037178;28;20430;-62
2021/04/27 02:15:17;;;;;;;16.98;12.75;;;231.30;2252.80;;;;;;5036876;28;20033;-61
2021/04/27 02:17:47;;;;;;;19.13;13.07;;;231.20;2252.80;;;;;;5037409;28;20383;-63
2021/04/27 02:20:14;;;;;;;20.45;13.82;;;231.20;2252.80;;;;;;5037281;28;20073;-61
2021/04/27 02:22:43;;;;;;;17.80;13.52;;;231.20;2252.80;;;;;;5037286;28;20029;-62
2021/04/27 02:25:11;;;;;;;20.08;14.05;;;231.20;2252.80;;;;;;5068882;28;20025;-62
2021/04/27 02:27:37;;;;;;;19.92;13.85;;;231.20;2252.80;;;;;;5037050;28;20025;-62
2021/04/27 02:30:06;;;;;;;19.95;13.65;;;231.20;2252.80;;;;;;5036553;28;20050;-65
2021/04/27 02:32:32;;;;;;;18.13;13.00;;;231.20;2252.80;;;;;;5036870;28;20481;-62
2021/04/27 02:34:58;;;;;;;20.33;13.85;;;231.20;2252.80;;;;;;5036843;28;20045;-61
2021/04/27 02:37:24;;;;;;;23.73;15.13;;;231.20;2252.80;;;;;;5027897;28;20057;-62
2021/04/27 02:39:53;;;;;;;20.30;13.70;;;231.20;2252.80;;;;;;5016251;28;20101;-62
2021/04/27 02:42:18;;;;;;;19.80;14.38;;;231.10;2252.80;;;;;;5016881;28;20049;-63
2021/04/27 02:44:44;;;;;;;19.70;13.80;;;231.00;2252.80;;;;;;5016664;28;20061;-62
2021/04/27 02:47:10;;;;;;;20.83;13.93;;;231.00;2252.80;;;;;;5016803;28;20080;-65
2021/04/27 02:49:36;;;;;;;22.73;15.65;;;230.90;2252.80;;;;;;5017027;28;20037;-62
2021/04/27 02:52:02;;;;;;;21.10;14.68;;;230.90;2252.80;;;;;;5016694;28;20122;-61
2021/04/27 02:54:28;;;;;;;20.00;14.80;;;230.90;2252.80;;;;;;5016616;28;20025;-61
2021/04/27 02:56:54;;;;;;;19.55;14.30;;;230.90;2252.80;;;;;;5016783;28;20041;-63
2021/04/27 02:59:19;;;;;;;21.30;15.52;;;231.00;2252.80;;;;;;5016499;28;20022;-63
2021/04/27 03:01:45;;;;;;;21.88;15.27;;;231.00;2252.80;;;;;;5016853;28;20715;-63
2021/04/27 03:04:11;;;;;;;21.83;15.15;;;231.00;2252.80;;;;;;5016556;28;20471;-62
2021/04/27 03:06:36;;;;;;;21.55;15.23;;;231.00;2252.80;;;;;;5016281;28;20105;-62
2021/04/27 03:09:03;;;;;;;22.45;15.25;;;230.90;2252.80;;;;;;5015850;28;20037;-63
2021/04/27 03:11:29;;;;;;;22.63;15.35;;;231.00;2252.80;;;;;;5016396;28;20066;-64
2021/04/27 03:13:55;;;;;;;22.55;15.45;;;231.00;2252.80;;;;;;5016359;28;20045;-62
2021/04/27 03:16:21;;;;;;;21.77;15.70;;;231.00;2252.80;;;;;;5016465;28;20030;-62
2021/04/27 03:18:47;;;;;;;23.30;15.65;;;230.90;2252.80;;;;;;5015683;28;20062;-63
2021/04/27 03:21:13;;;;;;;21.33;15.82;;;231.00;2252.80;;;;;;5015857;28;20053;-62
2021/04/27 03:23:39;;;;;;;23.80;16.50;;;230.90;2252.80;;;;;;5016101;28;20026;-62
2021/04/27 03:26:04;;;;;;;28.23;17.95;;;230.80;2252.80;;;;;;5016091;28;20411;-62
2021/04/27 03:28:30;;;;;;;24.85;17.40;;;230.90;2252.80;;;;;;5016104;28;20026;-61
2021/04/27 03:30:56;;;;;;;24.13;17.23;;;230.90;2252.80;;;;;;5015561;28;20053;-62
2021/04/27 03:33:22;;;;;;;25.08;18.15;;;230.90;2252.80;;;;;;5016207;28;20054;-62
2021/04/27 03:35:47;;;;;;;21.65;16.75;;;230.90;2252.80;;;;;;5015876;28;20038;-62
2021/04/27 03:38:14;;;;;;;25.08;16.80;;;231.00;2252.80;;;;;;5016162;28;20022;-62
2021/04/27 03:40:40;;;;;;;24.40;17.17;;;231.00;2252.80;;;;;;5015819;28;20502;-62
2021/04/27 03:43:07;;;;;;;25.27;18.48;;;230.90;2252.80;;;;;;5015972;28;20053;-62
2021/04/27 03:45:36;;;;;;;23.13;17.33;;;230.90;2252.80;;;;;;5015467;28;20026;-62
2021/04/27 03:48:08;;;;;;;27.92;18.63;;;230.90;2252.80;;;;;;5015554;28;20029;-62
2021/04/27 03:50:35;;;;;;;28.75;19.92;;;230.90;2252.80;;;;;;5015481;28;20391;-62
2021/04/27 03:53:00;;;;;;;25.52;17.35;;;231.00;2252.80;;;;;;5015633;28;20046;-63
2021/04/27 03:55:26;;;;;;;23.98;17.27;;;231.10;2252.80;;;;;;5015654;28;20069;-62
2021/04/27 03:57:52;;;;;;;22.60;17.13;;;231.10;2252.80;;;;;;5015471;28;20022;-62
2021/04/27 04:00:19;;;;;;;26.23;18.77;;;231.00;2252.80;;;;;;5015562;28;20030;-61
2021/04/27 04:02:44;;;;;;;25.23;17.30;;;231.10;2252.80;;;;;;5024397;28;20197;-62
2021/04/27 04:05:12;;;;;;;23.15;16.98;;;231.20;2252.80;;;;;;5035227;28;20481;-62
2021/04/27 04:07:39;;;;;;;25.30;18.00;;;231.20;2252.80;;;;;;5035082;28;20087;-62
2021/04/27 04:10:06;;;;;;;22.38;16.27;;;231.30;2252.80;;;;;;5021201;28;20029;-62
2021/04/27 04:12:32;;;;;;;23.00;16.92;;;231.30;2252.80;;;;;;5028224;28;20467;-62
2021/04/27 04:14:58;;;;;;;25.95;18.48;;;231.30;2252.80;;;;;;5034929;28;20030;-62
2021/04/27 04:17:24;;;;;;;22.85;16.38;;;256.00;2252.80;;;;;;5022691;28;20030;-68
2021/04/27 04:19:50;;;;;;;26.98;18.23;;;256.00;2252.80;;;;;;5020008;28;20026;-64
2021/04/27 04:22:16;;;;;;;23.25;16.42;;;256.10;2252.80;;;;;;5029845;28;20176;-62
2021/04/27 04:24:42;;;;;;;25.63;17.30;;;256.00;2252.80;;;;;;5029282;28;20043;-63
2021/04/27 04:27:07;;;;;;;25.17;16.52;;;256.00;2252.80;;;;;;5033044;28;20029;-62
2021/04/27 04:29:33;;;;;;;23.75;17.65;;;256.10;2252.80;;;;;;5032569;28;20132;-62
2021/04/27 04:31:59;;;;;;;24.30;17.45;;;256.10;2252.80;;;;;;5032363;28;20037;-61
2021/04/27 04:34:25;;;;;;;23.13;15.75;;;256.10;2252.80;;;;;;5030556;28;20025;-62
2021/04/27 04:36:51;;;;;;;23.45;16.27;;;256.10;2252.80;;;;;;5033305;28;20025;-68
2021/04/27 04:39:17;;;;;;;21.60;16.45;;;256.10;2252.80;;;;;;5033306;28;20525;-62
2021/04/27 04:41:43;;;;;;;22.50;16.20;;;256.20;2252.80;;;;;;5032167;28;20025;-66
2021/04/27 04:44:09;;;;;;;24.00;17.27;;;256.20;2252.80;;;;;;5029682;28;20483;-63
2021/04/27 04:46:35;;;;;;;23.10;16.73;;;256.20;2252.80;;;;;;5032982;28;20479;-63
2021/04/27 04:49:01;;;;;;;24.05;17.67;;;256.30;2252.80;;;;;;5033315;28;20025;-70
2021/04/27 04:51:27;;;;;;;26.30;17.85;;;256.30;2252.80;;;;;;5033688;28;20030;-61
2021/04/27 04:53:53;;;;;;;28.95;20.38;;;256.30;2252.80;;;;;;5033178;28;20017;-61
2021/04/27 04:56:20;;;;;;;29.88;21.02;;;256.40;2252.80;;;;;;5033216;28;20071;-64
2021/04/27 04:58:46;;;;;;;27.60;19.83;;;256.40;2252.80;;;;;;5031168;28;20025;-62
2021/04/27 05:01:12;;;;;;;25.73;18.10;;;256.40;2252.80;;;;;;5036753;28;20054;-62
2021/04/27 05:03:39;;;;;;;24.23;18.13;;;256.50;2252.80;;;;;;5036319;28;20021;-69
2021/04/27 05:06:06;;;;;;;25.30;17.95;;;256.40;2252.80;;;;;;5033492;28;20109;-63
2021/04/27 05:08:42;;;;;;;26.20;18.85;;;256.50;2252.80;;;;;;5030719;28;20026;-66
2021/04/27 05:11:08;;;;;;;27.80;18.75;;;256.40;2252.80;;;;;;5032887;28;20037;-62
2021/04/27 05:13:34;;;;;;;26.52;19.60;;;256.50;2252.80;;;;;;5032595;28;20029;-65
2021/04/27 05:16:02;;;;;;;26.35;18.42;;;256.50;2252.80;;;;;;5031115;28;20079;-63
2021/04/27 05:18:28;;;;;;;26.27;18.80;;;256.50;2252.80;;;;;;5032359;28;20025;-63
2021/04/27 05:20:54;;;;;;;27.10;18.70;;;256.60;2252.80;;;;;;5032606;28;20030;-62
2021/04/27 05:23:22;;;;;;;24.92;17.38;;;256.60;2252.80;;;;;;5032629;28;20030;-62
2021/04/27 05:25:48;;;;;;;25.38;18.20;;;256.60;2252.80;;;;;;5032798;28;20366;-62
2021/04/27 05:28:14;;;;;;;21.88;16.48;;;256.60;2252.80;;;;;;5033475;28;20018;-65
2021/04/27 05:30:40;;;;;;;22.63;15.63;;;256.60;2252.80;;;;;;5033415;28;20107;-62
2021/04/27 05:33:06;;;;;;;21.88;15.25;;;256.60;2252.80;;;;;;5033569;28;20479;-69
2021/04/27 05:35:32;;;;;;;19.08;14.15;;;256.60;2252.80;;;;;;5033430;28;20025;-63
2021/04/27 05:37:57;;;;;;;20.77;15.70;;;256.40;2252.80;;;;;;5033492;28;20068;-65
2021/04/27 05:40:23;;;;;;;22.55;15.18;;;256.40;2252.80;;;;;;5033408;28;20048;-65
2021/04/27 05:42:49;;;;;;;21.63;15.18;;;256.30;2252.80;;;;;;5033407;28;20032;-63
2021/04/27 05:45:15;;;;;;;23.45;17.27;;;256.40;2252.80;;;;;;5029222;28;20053;-68
2021/04/27 05:47:40;;;;;;;23.10;16.63;;;256.30;2252.80;;;;;;5033706;28;20025;-68
2021/04/27 05:50:07;;;;;;;20.45;15.23;;;256.40;2252.80;;;;;;5033652;28;20033;-66
2021/04/27 05:52:33;;;;;;;22.40;16.00;;;256.30;2252.80;;;;;;5033678;28;20464;-65
2021/04/27 05:54:59;;;;;;;23.33;16.42;;;256.20;2252.80;;;;;;5032418;28;20039;-65
2021/04/27 05:57:24;;;;;;;22.30;15.77;;;256.10;2252.80;;;;;;5033040;28;20030;-67
2021/04/27 05:59:50;;;;;;;22.20;15.45;;;256.10;2252.80;;;;;;5033154;28;20022;-70
2021/04/27 06:02:16;;;;;;;23.63;15.55;;;256.10;2252.80;;;;;;5033278;28;20053;-68
2021/04/27 06:04:41;;;;;;;21.85;15.25;;;256.00;2252.80;;;;;;5033457;28;20022;-64
2021/04/27 06:07:10;;;;;;;24.25;16.13;;;256.00;2252.80;;;;;;5033561;28;20022;-72
2021/04/27 06:09:36;;;;;;;21.92;14.50;;;256.00;2252.80;;;;;;5033027;28;20033;-68
2021/04/27 06:12:03;;;;;;;22.90;16.02;;;256.00;2252.80;;;;;;5032311;28;20045;-69
2021/04/27 06:14:28;;;;;;;21.58;15.85;;;256.00;2252.80;;;;;;5031338;28;20021;-66
2021/04/27 06:16:54;;;;;;;21.35;15.02;;;256.00;2252.80;;;;;;5031568;28;20076;-65
2021/04/27 06:19:20;;;;;;;20.50;14.85;;;256.10;2252.80;;;;;;5031670;28;20375;-68
2021/04/27 06:21:47;;;;;;;23.30;14.65;;;256.30;2252.80;;;;;;5031741;28;20101;-68
2021/04/27 06:24:13;;;;;;;21.05;14.70;;;256.40;2252.80;;;;;;5019794;28;20033;-65
2021/04/27 06:26:40;;;;;;;53.92;35.25;;;256.40;2252.80;;;;;;5029844;28;20059;-64
2021/04/27 06:29:06;;;;;;;26.90;19.35;;;256.40;2252.80;;;;;;5030160;28;20417;-64
2021/04/27 06:31:32;;;;;;;22.08;15.18;;;256.60;2252.80;;;;;;5031767;28;20038;-65
2021/04/27 06:33:58;;;;;;;22.92;15.88;;;256.60;2252.80;;;;;;5031603;28;20025;-66
2021/04/27 06:36:24;;;;;;;23.70;17.48;;;256.70;2252.80;;;;;;5033216;28;20378;-64
2021/04/27 06:38:50;;;;;;;21.77;15.05;;;256.80;2252.80;;;;;;5033251;28;20017;-64
2021/04/27 06:41:17;;;;;;;21.30;14.90;;;256.80;2252.80;;;;;;5032561;28;20043;-64
2021/04/27 06:43:43;;;;;;;20.90;15.48;;;256.80;2252.80;;;;;;5032806;28;20075;-65
2021/04/27 06:46:09;;;;;;;23.08;16.42;;;256.80;2252.80;;;;;;5032401;28;20030;-64
2021/04/27 06:48:35;;;;;;;27.10;18.45;;;256.80;2252.80;;;;;;5032991;28;20032;-65
2021/04/27 06:51:03;;;;;;;24.50;17.35;;;256.80;2252.80;;;;;;5032042;28;20045;-67
2021/04/27 06:53:30;;;;;;;23.33;15.57;;;256.90;2252.80;;;;;;5032261;28;20108;-65
2021/04/27 06:55:56;;;;;;;22.55;15.48;;;256.90;2252.80;;;;;;5035571;28;20033;-63
2021/04/27 06:58:21;;;;;;;19.58;13.98;;;256.90;2252.80;;;;;;5036202;28;20041;-64
2021/04/27 07:00:47;;;;;;;23.10;16.73;;;256.90;2252.80;;;;;;5034582;28;20115;-63
2021/04/27 07:03:13;;;;;;;18.17;12.90;;;281.60;2278.40;;;;;;5036208;28;20017;-65
2021/04/27 07:05:41;;;;;;;22.55;15.60;;;281.70;2278.40;;;;;;5036206;28;20475;-64
2021/04/27 07:08:07;;;;;;;19.38;14.02;;;281.70;2278.40;;;;;;5035914;28;20026;-64
2021/04/27 07:10:32;;;;;;;22.67;15.88;;;281.90;2278.40;;;;;;5035950;28;20041;-63
2021/04/27 07:12:58;;;;;;;20.55;14.50;;;282.10;2278.40;;;;;;5035322;28;20033;-63
2021/04/27 07:15:24;;;;;;;24.73;16.25;;;282.10;2278.40;;;;;;5035318;28;20391;-63
2021/04/27 07:17:50;;;;;;;24.92;18.00;;;282.20;2278.40;;;;;;5035683;28;20032;-64
2021/04/27 07:20:16;;;;;;;23.80;17.92;;;282.20;2278.40;;;;;;5035660;28;20032;-65
2021/04/27 07:22:42;;;;;;;23.52;16.55;;;282.30;2278.40;;;;;;5035843;28;20545;-64
2021/04/27 07:25:09;;;;;;;23.73;17.02;;;282.40;2278.40;;;;;;5035691;28;20043;-63
2021/04/27 07:27:35;;;;;;;21.95;15.68;;;282.40;2278.40;;;;;;5035658;28;20030;-63
2021/04/27 07:30:02;;;;;;;21.40;15.50;;;282.40;2278.40;;;;;;5035355;28;20392;-64
2021/04/27 07:32:28;;;;;;;23.02;15.95;;;307.20;2304.00;;;;;;5035447;28;20065;-64
2021/04/27 07:34:54;;;;;;;22.98;13.80;;;282.40;2278.40;;;;;;5035564;28;20479;-64
2021/04/27 07:37:20;;;;;;;20.80;13.73;;;282.50;2278.40;;;;;;5035500;28;20088;-64
2021/04/27 07:39:46;;;;;;;21.13;15.15;;;282.50;2278.40;;;;;;5035366;28;20056;-64
2021/04/27 07:42:12;;;;;;;19.75;14.40;;;307.20;2304.00;;;;;;5033516;28;20459;-66
2021/04/27 07:44:38;;;;;;;37.28;22.13;;;307.20;2304.00;;;;;;5033194;28;20081;-66
2021/04/27 07:47:04;;;;;;;49.95;31.60;;;282.50;2278.40;;;;;;5032547;28;20543;-67
2021/04/27 07:49:30;;;;;;;29.38;19.02;;;282.40;2278.40;;;;;;5032559;28;20033;-69
2021/04/27 07:51:56;;;;;;;22.70;16.00;;;307.20;2304.00;;;;;;5031109;28;20037;-68
2021/04/27 07:54:22;;;;;;;21.67;14.95;;;307.20;2304.00;;;;;;5031299;28;20045;-68
2021/04/27 07:56:48;;;;;;;19.00;13.98;;;307.30;2304.00;;;;;;5032500;28;20025;-67
2021/04/27 07:59:14;;;;;;;21.00;15.55;;;307.20;2278.40;;;;;;5032138;28;20049;-69
2021/04/27 08:01:40;;;;;;;19.77;14.10;;;307.30;2304.00;;;;;;5032291;28;20121;-70
2021/04/27 08:04:06;;;;;;;21.77;15.25;;;307.30;2252.80;;;;;;5032299;28;20061;-64
2021/04/27 08:06:33;;;;;;;18.90;14.00;;;307.40;2304.00;;;;;;5032580;28;20040;-63
2021/04/27 08:09:00;;;;;;;21.52;15.40;;;307.50;2252.80;;;;;;5034363;28;20025;-68
2021/04/27 08:11:26;;;;;;;17.45;13.45;;;307.60;2252.80;;;;;;5032057;28;20033;-63
2021/04/27 08:13:52;;;;;;;20.67;14.23;;;307.50;2227.20;;;;;;5034599;28;20025;-64
2021/04/27 08:16:18;;;;;;;21.45;14.98;;;307.60;2227.20;;;;;;5034564;28;20025;-65
2021/04/27 08:18:43;;;;;;;18.48;13.15;;;307.50;2201.60;;;;;;5034407;28;20163;-65
2021/04/27 08:21:11;;;;;;;19.02;13.45;;;307.50;2176.00;;;;;;5035034;28;20120;-64
2021/04/27 08:23:37;;;;;;;19.15;13.20;;;307.40;2201.60;;;;;;5034620;28;20085;-64
2021/04/27 08:26:09;;;;;;;17.00;12.68;;;307.50;2201.60;;;;;;5032900;28;20038;-64
2021/04/27 08:28:35;;;;;;;18.35;13.50;;;307.40;2201.60;;;;;;5034509;28;20025;-65
2021/04/27 08:31:01;;;;;;;19.45;13.73;;;307.50;2227.20;;;;;;5034120;28;20049;-66
2021/04/27 08:33:28;;;;;;;18.40;13.40;;;307.60;2201.60;;;;;;5034386;28;20021;-65
2021/04/27 08:35:54;;;;;;;18.90;13.75;;;307.80;2201.60;;;;;;5034094;28;20495;-64
2021/04/27 08:38:21;;;;;;;20.42;13.35;;;307.70;2176.00;;;;;;5032533;28;20026;-62
2021/04/27 08:40:48;;;;;;;18.70;13.73;;;307.70;2150.40;;;;;;5025453;28;20029;-68
2021/04/27 08:43:14;;;;;;;20.20;13.48;;;307.70;2176.00;;;;;;5021156;28;20100;-64
2021/04/27 08:45:42;;;;;;;18.05;14.00;;;307.80;2201.60;;;;;;5021771;28;20482;-63
2021/04/27 08:48:09;;;;;;;17.60;13.30;;;307.90;2201.60;;;;;;5031049;28;20029;-63
2021/04/27 08:50:35;;;;;;;19.70;13.85;;;308.10;2150.40;;;;;;5025470;28;20049;-66
2021/04/27 08:53:02;;;;;;;17.70;12.90;;;332.80;2176.00;;;;;;5024477;28;20371;-65
2021/04/27 08:55:28;;;;;;;20.95;12.80;;;332.90;2176.00;;;;;;5056487;28;20022;-68
2021/04/27 08:57:53;;;;;;;19.00;13.30;;;332.80;2150.40;;;;;;5025769;28;20031;-69
2021/04/27 09:00:21;;;;;;;18.50;13.48;;;332.80;2124.80;;;;;;5030442;28;20096;-70
2021/04/27 09:02:59;;;;;;;17.20;12.48;;;332.90;2201.60;;;;;;5031439;28;20068;-66
2021/04/27 09:05:28;;;;;;;18.23;13.00;;;333.10;2124.80;;;;;;5031342;28;20103;-70
2021/04/27 09:07:55;;;;;;;19.23;13.27;;;333.20;2124.80;;;;;;5028098;28;20064;-66
2021/04/27 09:10:33;;;;;;;20.50;14.18;;;333.30;2124.80;;;;;;5028234;28;20035;-65
2021/04/27 09:13:12;;;;;;;20.02;13.35;;;333.10;2099.20;;;;;;5026650;28;20030;-67
2021/04/27 09:15:53;;;;;;;18.73;13.63;;;333.30;2073.60;;;;;;5031818;28;20017;-69
2021/04/27 09:18:28;;;;;;;17.70;13.02;;;333.40;2099.20;;;;;;5033279;28;20029;-66
2021/04/27 09:20:58;;;;;;;18.27;13.40;;;333.50;2099.20;;;;;;5020363;28;20025;-70
2021/04/27 09:23:24;;;;;;;18.48;12.98;;;333.50;2099.20;;;;;;5033565;28;20108;-69
2021/04/27 09:26:16;;;;;;;17.85;12.73;;;333.60;2048.00;;;;;;5026308;28;20026;-68
2021/04/27 09:28:49;;;;;;;19.67;14.25;;;333.40;2099.20;;;;;;5013790;28;20033;-68
2021/04/27 09:31:26;;;;;;;19.20;13.63;;;333.60;2048.00;;;;;;5020066;28;20029;-64
2021/04/27 09:33:54;;;;;;;17.38;13.32;;;333.50;2073.60;;;;;;5032840;28;21382;-65
2021/04/27 09:36:24;;;;;;;20.30;13.27;;;333.40;2048.00;;;;;;5030605;28;20025;-65
2021/04/27 09:38:54;;;;;;;19.80;13.63;;;333.30;2073.60;;;;;;5033243;28;20422;-65
2021/04/27 09:41:24;;;;;;;18.60;13.27;;;333.50;2048.00;;;;;;5027148;28;20021;-63
2021/04/27 09:43:51;;;;;;;18.75;14.23;;;333.40;2073.60;;;;;;5025656;28;20034;-63
2021/04/27 09:46:20;;;;;;;17.88;13.93;;;333.60;2099.20;;;;;;5026831;28;20133;-69
2021/04/27 09:48:47;;;;;;;21.73;14.18;;;333.70;2048.00;;;;;;5031495;28;20032;-68
2021/04/27 09:51:12;;;;;;;19.50;13.20;;;358.40;2022.40;;;;;;5031181;28;20057;-65
2021/04/27 09:53:42;;;;;;;18.90;13.70;;;333.70;1996.80;;;;;;5021902;28;20045;-68
2021/04/27 09:56:09;;;;;;;22.10;14.93;;;333.70;2048.00;;;;;;5030043;28;20017;-64
2021/04/27 09:58:36;;;;;;;21.50;15.00;;;333.70;2073.60;;;;;;5031711;28;20099;-65
2021/04/27 10:01:02;;;;;;;20.67;15.52;;;358.50;2073.60;;;;;;5031143;28;20444;-65
2021/04/27 10:03:29;;;;;;;23.45;15.50;;;358.60;2022.40;;;;;;5025918;28;20159;-70
2021/04/27 10:05:56;;;;;;;20.25;14.85;;;358.70;2022.40;;;;;;5031596;28;20025;-74
2021/04/27 10:08:24;;;;;;;18.73;13.50;;;358.80;1996.80;;;;;;5021753;28;20030;-74
2021/04/27 10:10:50;;;;;;;18.50;13.80;;;358.80;1971.20;;;;;;5030849;28;20045;-67
2021/04/27 10:13:16;;;;;;;19.67;14.05;;;358.70;1996.80;;;;;;5029227;28;20026;-66
2021/04/27 10:15:44;;;;;;;19.48;13.80;;;358.80;2022.40;;;;;;5029889;28;20040;-69
2021/04/27 10:18:11;;;;;;;21.95;15.00;;;358.80;2022.40;;;;;;5032429;28;20112;-67
2021/04/27 10:20:38;;;;;;;23.60;18.15;;;358.80;1996.80;;;;;;5032102;28;20471;-67
2021/04/27 10:23:06;;;;;;;21.50;15.98;;;358.80;1971.20;;;;;;5031936;28;20061;-67
2021/04/27 10:25:33;;;;;;;23.35;16.00;;;358.70;1971.20;;;;;;5032333;28;20024;-67
2021/04/27 10:28:04;;;;;;;25.92;19.92;;;358.70;1996.80;;;;;;5031520;28;20458;-64
2021/04/27 10:30:33;;;;;;;29.77;19.95;;;358.70;2022.40;;;;;;5034834;28;20049;-68
2021/04/27 10:33:01;;;;;;;25.92;18.05;;;358.80;1996.80;;;;;;5036459;28;20052;-68
2021/04/27 10:35:35;;;;;;;21.65;15.75;;;358.70;1996.80;;;;;;5036050;28;20022;-67
2021/04/27 10:38:03;;;;;;;26.02;19.10;;;358.70;1996.80;;;;;;5034463;28;20087;-64
2021/04/27 10:40:41;;;;;;;26.27;17.38;;;358.60;1996.80;;;;;;5035580;28;20029;-70
2021/04/27 10:43:33;;;;;;;21.65;15.85;;;358.50;2022.40;;;;;;5035657;28;20520;-68
2021/04/27 10:46:03;;;;;;;23.10;16.15;;;358.40;2022.40;;;;;;5033907;28;20022;-71
2021/04/27 10:48:33;;;;;;;24.42;18.05;;;333.70;2048.00;;;;;;5035782;28;20024;-66
2021/04/27 10:51:19;;;;;;;21.75;17.33;;;358.40;2073.60;;;;;;5033748;28;20041;-66
2021/04/27 10:54:18;;;;;;;27.70;19.65;;;358.50;2073.60;;;;;;5034293;28;20029;-64
2021/04/27 10:56:56;;;;;;;30.15;20.48;;;358.50;2099.20;;;;;;5036116;28;20021;-62
2021/04/27 10:59:27;;;;;;;27.88;20.02;;;358.60;2073.60;;;;;;5032332;28;20041;-63
2021/04/27 11:02:13;;;;;;;26.30;19.45;;;358.70;2048.00;;;;;;5035991;28;20817;-63
2021/04/27 11:04:43;;;;;;;27.27;19.20;;;358.90;2048.00;;;;;;5036108;28;20060;-62
2021/04/27 11:07:23;;;;;;;22.80;17.48;;;359.00;2022.40;;;;;;5032916;28;20029;-64
2021/04/27 11:09:58;;;;;;;24.80;17.83;;;359.10;1971.20;;;;;;5035993;28;20418;-64
2021/04/27 11:12:44;;;;;;;24.70;17.58;;;359.20;1971.20;;;;;;5034643;28;20033;-69
2021/04/27 11:15:19;;;;;;;26.70;18.23;;;359.10;1996.80;;;;;;5035606;28;20025;-66
2021/04/27 11:17:57;;;;;;;24.00;18.38;;;359.20;2048.00;;;;;;5035576;28;20033;-71
2021/04/27 11:20:42;;;;;;;24.40;18.15;;;359.20;2022.40;;;;;;5035912;28;20021;-63
2021/04/27 11:23:08;;;;;;;25.35;19.30;;;359.00;2022.40;;;;;;5036767;28;20025;-66
2021/04/27 11:25:35;;;;;;;27.90;19.08;;;359.00;2048.00;;;;;;5035792;28;20055;-65
2021/04/27 11:28:02;;;;;;;23.58;17.70;;;359.00;2048.00;;;;;;5035639;28;20030;-64
2021/04/27 11:30:35;;;;;;;33.35;21.80;;;358.90;2022.40;;;;;;5035140;28;20500;-63
2021/04/27 11:33:05;;;;;;;34.05;22.83;;;358.80;2022.40;;;;;;5036014;28;20029;-70
2021/04/27 11:35:42;;;;;;;21.55;16.58;;;358.70;2048.00;;;;;;5035615;28;20025;-66
2021/04/27 11:38:08;;;;;;;22.40;17.17;;;358.70;2048.00;;;;;;5035324;28;20098;-65
2021/04/27 11:40:38;;;;;;;23.27;16.73;;;358.70;2099.20;;;;;;5034966;28;20037;-62
2021/04/27 11:43:10;;;;;;;21.25;16.35;;;358.70;2099.20;;;;;;5035439;28;20033;-62
2021/04/27 11:45:42;;;;;;;22.05;17.25;;;358.70;2073.60;;;;;;5035109;28;20108;-64
2021/04/27 11:48:13;;;;;;;24.02;16.85;;;358.80;2073.60;;;;;;5035233;28;20529;-62
2021/04/27 11:50:39;;;;;;;25.75;17.67;;;358.80;2073.60;;;;;;5035016;28;20467;-69
2021/04/27 11:53:12;;;;;;;23.63;17.60;;;358.90;2048.00;;;;;;5035200;28;20041;-63
2021/04/27 11:55:43;;;;;;;24.23;18.25;;;359.00;2022.40;;;;;;5034921;28;20040;-64
2021/04/27 11:58:16;;;;;;;24.83;17.85;;;359.10;1996.80;;;;;;5033853;28;20542;-64
2021/04/27 12:00:48;;;;;;;26.52;18.33;;;359.00;2022.40;;;;;;5034964;28;20034;-63
2021/04/27 12:03:24;;;;;;;25.20;17.85;;;359.00;2022.40;;;;;;5035107;28;20502;-63